createdAt,value
2019-01-22T00:00:12.034Z,0.00
2019-01-22T00:02:40.785Z,0.00
2019-01-22T00:05:10.684Z,-0.10
2019-01-22T00:07:39.118Z,-0.10
2019-01-22T00:10:09.996Z,-0.20
2019-01-22T00:12:38.450Z,-0.20
2019-01-22T00:15:10.271Z,-0.20
2019-01-22T00:17:39.548Z,-0.30
2019-01-22T00:20:12.607Z,-0.40
2019-01-22T00:22:41.292Z,-0.40
2019-01-22T00:25:11.974Z,-0.40
2019-01-22T00:27:40.751Z,-0.50
2019-01-22T00:30:12.614Z,-0.50
2019-01-22T00:32:41.135Z,-0.60
2019-01-22T00:35:09.692Z,-0.60
2019-01-22T00:37:38.147Z,-0.70
2019-01-22T00:40:09.516Z,-0.70
2019-01-22T00:42:38.295Z,-0.70
2019-01-22T00:45:07.671Z,-0.80
2019-01-22T00:47:36.151Z,-0.90
2019-01-22T00:50:08.532Z,-1.00
2019-01-22T00:52:37.116Z,-1.10
2019-01-22T00:55:08.428Z,-1.10
2019-01-22T00:57:36.940Z,-1.20
2019-01-22T01:00:17.134Z,-1.20
2019-01-22T01:02:45.681Z,-1.20
2019-01-22T01:05:14.690Z,-1.20
2019-01-22T01:07:43.770Z,-1.20
2019-01-22T01:10:13.614Z,-1.30
2019-01-22T01:12:42.387Z,-1.30
2019-01-22T01:15:13.287Z,-1.30
2019-01-22T01:17:41.784Z,-1.30
2019-01-22T01:20:13.330Z,-1.30
2019-01-22T01:22:41.763Z,-1.30
2019-01-22T01:25:13.064Z,-1.30
2019-01-22T01:27:41.886Z,-1.30
2019-01-22T01:30:16.119Z,-1.40
2019-01-22T01:32:45.413Z,-1.40
2019-01-22T01:35:14.488Z,-1.40
2019-01-22T01:37:43.282Z,-1.50
2019-01-22T01:40:14.255Z,-1.50
2019-01-22T01:42:42.760Z,-1.50
2019-01-22T01:45:11.899Z,-1.60
2019-01-22T01:47:40.713Z,-1.60
2019-01-22T01:50:11.956Z,-1.60
2019-01-22T01:52:40.380Z,-1.60
2019-01-22T01:55:10.971Z,-1.60
2019-01-22T01:57:40.327Z,-1.70
2019-01-22T02:00:12.484Z,-1.70
2019-01-22T02:02:41.222Z,-1.70
2019-01-22T02:05:09.733Z,-1.80
2019-01-22T02:07:38.307Z,-1.80
2019-01-22T02:10:09.828Z,-1.80
2019-01-22T02:12:41.687Z,-1.90
2019-01-22T02:15:25.503Z,-1.90
2019-01-22T02:18:00.100Z,-1.90
2019-01-22T02:20:31.683Z,-1.80
2019-01-22T02:23:15.157Z,-1.90
2019-01-22T02:26:01.706Z,-1.90
2019-01-22T02:28:45.750Z,-1.90
2019-01-22T02:31:20.033Z,-2.00
2019-01-22T02:33:57.192Z,-2.00
2019-01-22T02:36:32.014Z,-2.10
2019-01-22T02:39:12.515Z,-2.10
2019-01-22T02:41:44.115Z,-2.20
2019-01-22T02:44:30.638Z,-2.20
2019-01-22T02:47:20.400Z,-2.20
2019-01-22T02:50:10.296Z,-2.20
2019-01-22T02:52:41.822Z,-2.30
2019-01-22T02:55:15.952Z,-2.30
2019-01-22T02:57:56.815Z,-2.40
2019-01-22T03:00:44.898Z,-2.40
2019-01-22T03:03:25.457Z,-2.40
2019-01-22T03:06:15.183Z,-2.40
2019-01-22T03:09:06.297Z,-2.50
2019-01-22T03:11:46.546Z,-2.50
2019-01-22T03:14:34.836Z,-2.50
2019-01-22T03:17:21.699Z,-2.50
2019-01-22T03:19:56.604Z,-2.50
2019-01-22T03:22:37.318Z,-2.50
2019-01-22T03:25:14.855Z,-2.50
2019-01-22T03:27:52.180Z,-2.50
2019-01-22T03:30:32.753Z,-2.50
2019-01-22T03:33:19.762Z,-2.60
2019-01-22T03:36:07.923Z,-2.60
2019-01-22T03:38:39.436Z,-2.60
2019-01-22T03:41:31.863Z,-2.60
2019-01-22T03:44:03.819Z,-2.60
2019-01-22T03:46:38.348Z,-2.70
2019-01-22T03:49:18.805Z,-2.70
2019-01-22T03:51:53.322Z,-2.70
2019-01-22T03:54:43.027Z,-2.70
2019-01-22T03:57:25.970Z,-2.80
2019-01-22T03:59:54.412Z,-2.80
2019-01-22T04:02:24.269Z,-2.80
2019-01-22T04:04:52.723Z,-2.80
2019-01-22T04:07:21.168Z,-2.80
2019-01-22T04:09:50.088Z,-2.80
2019-01-22T04:12:18.536Z,-2.80
2019-01-22T04:14:47.107Z,-2.80
2019-01-22T04:17:15.645Z,-2.90
2019-01-22T04:19:44.088Z,-2.90
2019-01-22T04:22:15.288Z,-2.90
2019-01-22T04:24:49.357Z,-2.90
2019-01-22T04:27:26.704Z,-2.90
2019-01-22T04:30:16.845Z,-3.00
2019-01-22T04:32:51.332Z,-3.00
2019-01-22T04:35:38.050Z,-3.10
2019-01-22T04:38:21.899Z,-3.20
2019-01-22T04:40:56.176Z,-3.20
2019-01-22T04:43:36.820Z,-3.20
2019-01-22T04:46:35.263Z,-3.20
2019-01-22T04:49:15.480Z,-3.30
2019-01-22T04:51:56.072Z,-3.30
2019-01-22T04:54:39.364Z,-3.30
2019-01-22T04:57:13.629Z,-3.30
2019-01-22T04:59:54.107Z,-3.30
2019-01-22T05:02:25.633Z,-3.40
2019-01-22T05:05:06.007Z,-3.50
2019-01-22T05:07:49.622Z,-3.60
2019-01-22T05:10:30.056Z,-3.50
2019-01-22T05:13:10.446Z,-3.50
2019-01-22T05:15:45.003Z,-3.60
2019-01-22T05:18:40.886Z,-3.50
2019-01-22T05:21:31.837Z,-3.50
2019-01-22T05:24:17.557Z,-3.60
2019-01-22T05:27:06.387Z,-3.60
2019-01-22T05:30:09.996Z,-3.60
2019-01-22T05:32:46.996Z,-3.50
2019-01-22T05:35:24.004Z,-3.50
2019-01-22T05:38:13.648Z,-3.50
2019-01-22T05:40:57.562Z,-3.50
2019-01-22T05:44:01.164Z,-3.50
2019-01-22T05:46:52.087Z,-3.50
2019-01-22T05:49:35.750Z,-3.40
2019-01-22T05:52:07.256Z,-3.40
2019-01-22T05:54:38.750Z,-3.40
2019-01-22T05:57:10.427Z,-3.40
2019-01-22T05:59:54.275Z,-3.40
2019-01-22T06:02:25.331Z,-3.50
2019-01-22T06:05:25.901Z,-3.40
2019-01-22T06:08:00.347Z,-3.40
2019-01-22T06:10:50.093Z,-3.50
2019-01-22T06:13:24.584Z,-3.50
2019-01-22T06:16:11.225Z,-3.50
2019-01-22T06:19:01.012Z,-3.50
2019-01-22T06:21:41.480Z,-3.50
2019-01-22T06:24:15.886Z,-3.50
2019-01-22T06:26:50.292Z,-3.50
2019-01-22T06:29:50.574Z,-3.50
2019-01-22T06:32:24.877Z,-3.50
2019-01-22T06:35:02.180Z,-3.60
2019-01-22T06:37:36.803Z,-3.60
2019-01-22T06:40:17.600Z,-3.70
2019-01-22T06:42:58.252Z,-3.70
2019-01-22T06:45:35.625Z,-3.80
2019-01-22T06:51:50.460Z,-3.80
2019-01-22T06:54:40.158Z,-3.80
2019-01-22T06:57:20.651Z,-3.80
2019-01-22T07:00:15.023Z,-3.90
2019-01-22T07:02:52.658Z,-3.90
2019-01-22T07:05:53.218Z,-3.90
2019-01-22T07:08:25.008Z,-3.90
2019-01-22T07:10:59.200Z,-3.80
2019-01-22T07:13:42.870Z,-3.80
2019-01-22T07:16:20.544Z,-3.90
2019-01-22T07:19:13.167Z,-3.90
2019-01-22T07:21:52.890Z,-3.80
2019-01-22T07:24:24.408Z,-3.80
2019-01-22T07:27:01.707Z,-3.80
2019-01-22T07:29:49.841Z,-3.70
2019-01-22T07:32:24.358Z,-3.80
2019-01-22T07:35:01.947Z,-3.70
2019-01-22T07:37:45.280Z,-3.70
2019-01-22T07:40:22.046Z,-3.70
2019-01-22T07:43:10.289Z,-3.70
2019-01-22T07:45:58.486Z,-3.60
2019-01-22T07:48:32.939Z,-3.70
2019-01-22T07:51:16.900Z,-3.70
2019-01-22T07:54:15.656Z,-3.60
2019-01-22T07:57:05.161Z,-3.60
2019-01-22T07:59:39.712Z,-3.50
2019-01-22T08:02:29.588Z,-3.50
2019-01-22T08:05:17.368Z,-3.40
2019-01-22T08:07:59.823Z,-3.30
2019-01-22T08:10:46.829Z,-3.20
2019-01-22T08:13:47.216Z,-3.10
2019-01-22T08:16:41.111Z,-3.00
2019-01-22T08:19:28.959Z,-3.00
2019-01-22T08:22:12.591Z,-2.90
2019-01-22T08:25:00.563Z,-2.90
2019-01-22T08:27:55.296Z,-2.80
2019-01-22T08:30:32.404Z,-2.80
2019-01-22T08:33:04.189Z,-2.70
2019-01-22T08:35:44.226Z,-2.60
2019-01-22T08:38:30.792Z,-2.60
2019-01-22T08:41:14.282Z,-2.50
2019-01-22T08:44:09.549Z,-2.40
2019-01-22T08:46:50.582Z,-2.30
2019-01-22T08:49:43.471Z,-2.20
2019-01-22T08:52:30.227Z,-2.20
2019-01-22T08:55:19.467Z,-2.10
2019-01-22T08:57:56.659Z,-2.00
2019-01-22T09:00:37.275Z,-1.90
2019-01-22T09:03:33.161Z,-1.90
2019-01-22T09:06:13.643Z,-1.80
2019-01-22T09:09:00.377Z,-1.70
2019-01-22T09:11:56.574Z,-1.60
2019-01-22T09:14:31.099Z,-1.50
2019-01-22T09:17:17.905Z,-1.40
2019-01-22T09:19:55.150Z,-1.50
2019-01-22T09:22:38.573Z,-1.50
2019-01-22T09:25:25.242Z,-1.40
2019-01-22T09:28:14.899Z,-1.30
2019-01-22T09:30:55.785Z,-1.20
2019-01-22T09:33:32.983Z,-1.10
2019-01-22T09:36:08.736Z,-0.90
2019-01-22T09:38:37.167Z,-0.80
2019-01-22T09:41:05.899Z,-0.80
2019-01-22T09:43:34.328Z,-0.70
2019-01-22T09:46:02.884Z,-0.60
2019-01-22T09:48:31.314Z,-0.50
2019-01-22T09:51:00.181Z,-0.30
2019-01-22T09:53:28.908Z,-0.20
2019-01-22T09:56:00.878Z,-0.20
2019-01-22T09:58:27.780Z,0.00
2019-01-22T10:00:56.212Z,0.00
2019-01-22T10:03:25.002Z,0.10
2019-01-22T10:05:53.781Z,0.20
2019-01-22T10:08:22.206Z,0.20
2019-01-22T10:10:50.634Z,0.30
2019-01-22T10:13:19.116Z,0.30
2019-01-22T10:15:47.644Z,0.50
2019-01-22T10:18:16.073Z,0.50
2019-01-22T10:20:44.590Z,0.60
2019-01-22T10:23:14.064Z,0.70
2019-01-22T10:25:42.961Z,0.80
2019-01-22T10:28:11.404Z,0.90
2019-01-22T10:30:39.833Z,0.80
2019-01-22T10:33:08.601Z,0.90
2019-01-22T10:35:37.052Z,1.00
2019-01-22T10:38:05.471Z,1.10
2019-01-22T10:40:33.903Z,1.10
2019-01-22T10:43:08.972Z,1.20
2019-01-22T10:45:32.495Z,1.30
2019-01-22T10:48:01.255Z,1.40
2019-01-22T10:50:29.687Z,1.50
2019-01-22T10:52:58.147Z,1.60
2019-01-22T10:55:26.617Z,1.70
2019-01-22T10:57:55.132Z,1.80
2019-01-22T11:00:29.209Z,1.80
2019-01-22T11:02:57.784Z,1.90
2019-01-22T11:05:34.747Z,1.90
2019-01-22T11:08:03.269Z,2.00
2019-01-22T11:10:31.674Z,2.10
2019-01-22T11:13:00.128Z,2.10
2019-01-22T11:15:28.616Z,2.20
2019-01-22T11:17:57.358Z,2.30
2019-01-22T11:20:32.389Z,2.40
2019-01-22T11:23:01.170Z,2.60
2019-01-22T11:25:32.164Z,2.80
2019-01-22T11:28:00.643Z,2.90
2019-01-22T11:30:29.721Z,2.90
2019-01-22T11:32:58.486Z,3.10
2019-01-22T11:35:27.159Z,3.40
2019-01-22T11:37:55.966Z,3.70
2019-01-22T11:40:33.576Z,4.10
2019-01-22T11:43:02.121Z,4.90
2019-01-22T11:45:30.923Z,5.30
2019-01-22T11:47:59.404Z,5.70
2019-01-22T11:50:28.203Z,6.30
2019-01-22T11:52:56.635Z,6.60
2019-01-22T11:55:25.097Z,6.80
2019-01-22T11:57:53.943Z,7.40
2019-01-22T12:00:29.446Z,7.80
2019-01-22T12:02:57.870Z,7.90
2019-01-22T12:05:26.662Z,7.70
2019-01-22T12:07:55.453Z,7.60
2019-01-22T12:10:24.141Z,7.50
2019-01-22T12:12:52.638Z,7.90
2019-01-22T12:15:21.379Z,8.20
2019-01-22T12:17:49.873Z,8.50
2019-01-22T12:20:23.986Z,8.40
2019-01-22T12:22:52.401Z,8.40
2019-01-22T12:25:20.907Z,8.30
2019-01-22T12:27:49.347Z,8.30
2019-01-22T12:30:21.187Z,8.50
2019-01-22T12:32:49.677Z,8.30
2019-01-22T12:35:18.460Z,8.30
2019-01-22T12:37:46.953Z,8.40
2019-01-22T12:40:21.239Z,8.10
2019-01-22T12:42:49.834Z,8.20
2019-01-22T12:45:33.096Z,8.40
2019-01-22T12:48:01.529Z,8.50
2019-01-22T12:50:30.278Z,8.80
2019-01-22T12:52:58.774Z,8.70
2019-01-22T12:55:27.314Z,8.80
2019-01-22T12:57:55.861Z,8.80
2019-01-22T13:00:27.468Z,8.10
2019-01-22T13:02:56.106Z,7.90
2019-01-22T13:05:30.260Z,7.50
2019-01-22T13:07:59.042Z,7.40
2019-01-22T13:10:27.909Z,7.50
2019-01-22T13:12:56.339Z,7.70
2019-01-22T13:15:25.101Z,8.00
2019-01-22T13:17:53.516Z,8.00
2019-01-22T13:20:23.092Z,8.40
2019-01-22T13:22:51.517Z,8.40
2019-01-22T13:25:20.592Z,8.60
2019-01-22T13:27:49.111Z,8.50
2019-01-22T13:30:24.770Z,8.20
2019-01-22T13:32:53.767Z,7.90
2019-01-22T13:35:22.461Z,7.30
2019-01-22T13:37:51.017Z,7.10
2019-01-22T13:40:19.529Z,6.80
2019-01-22T13:42:48.114Z,6.50
2019-01-22T13:45:22.150Z,6.20
2019-01-22T13:47:52.235Z,6.10
2019-01-22T13:50:22.060Z,5.80
2019-01-22T13:52:50.772Z,5.60
2019-01-22T13:55:22.365Z,5.30
2019-01-22T13:57:51.093Z,5.30
2019-01-22T14:00:25.056Z,5.20
2019-01-22T14:02:54.430Z,4.90
2019-01-22T14:05:23.405Z,4.70
2019-01-22T14:07:52.003Z,4.60
2019-01-22T14:10:20.433Z,4.60
2019-01-22T14:12:48.871Z,4.40
2019-01-22T14:15:23.380Z,4.40
2019-01-22T14:17:51.835Z,4.40
2019-01-22T14:20:20.302Z,4.30
2019-01-22T14:22:48.834Z,4.30
2019-01-22T14:25:20.641Z,4.20
2019-01-22T14:27:50.172Z,4.20
2019-01-22T14:30:30.156Z,4.10
2019-01-22T14:32:58.931Z,4.10
2019-01-22T14:35:27.467Z,4.10
2019-01-22T14:37:56.022Z,3.90
2019-01-22T14:40:24.805Z,3.80
2019-01-22T14:42:53.309Z,3.60
2019-01-22T14:45:23.270Z,3.40
2019-01-22T14:47:51.824Z,3.40
2019-01-22T14:50:25.520Z,3.50
2019-01-22T14:52:54.030Z,3.50
2019-01-22T14:55:22.525Z,3.40
2019-01-22T14:57:51.010Z,3.40
2019-01-22T15:00:21.985Z,3.30
2019-01-22T15:02:50.494Z,3.30
2019-01-22T15:05:19.328Z,3.30
2019-01-22T15:07:47.750Z,3.30
2019-01-22T15:10:17.756Z,3.20
2019-01-22T15:12:49.090Z,3.10
2019-01-22T15:15:18.791Z,3.10
2019-01-22T15:17:47.204Z,3.10
2019-01-22T15:20:21.103Z,3.10
2019-01-22T15:26:18.386Z,3.10
2019-01-22T15:28:46.834Z,3.10
2019-01-22T15:31:15.345Z,3.10
2019-01-22T15:33:43.782Z,3.00
2019-01-22T15:36:12.565Z,3.00
2019-01-22T15:38:41.006Z,3.00
2019-01-22T15:41:09.734Z,2.90
2019-01-22T15:43:38.176Z,2.80
2019-01-22T15:46:06.586Z,2.80
2019-01-22T15:48:35.331Z,2.90
2019-01-22T15:51:03.842Z,2.80
2019-01-22T15:53:32.364Z,2.80
2019-01-22T15:56:00.870Z,2.80
2019-01-22T15:58:29.361Z,2.70
2019-01-22T16:00:57.790Z,2.60
2019-01-22T16:03:26.583Z,2.60
2019-01-22T16:05:55.044Z,2.50
2019-01-22T16:08:23.846Z,2.60
2019-01-22T16:10:52.280Z,2.60
2019-01-22T16:13:20.721Z,2.50
2019-01-22T16:15:49.300Z,2.50
2019-01-22T16:18:17.923Z,2.50
2019-01-22T16:20:46.324Z,2.60
2019-01-22T16:23:15.055Z,2.60
2019-01-22T16:25:43.624Z,2.60
2019-01-22T16:28:12.325Z,2.60
2019-01-22T16:30:40.751Z,2.40
2019-01-22T16:33:09.291Z,2.40
2019-01-22T16:35:37.791Z,2.30
2019-01-22T16:38:06.556Z,2.30
2019-01-22T16:40:35.387Z,2.30
2019-01-22T16:43:03.961Z,2.40
2019-01-22T16:45:34.265Z,2.50
2019-01-22T16:48:02.777Z,2.50
2019-01-22T16:50:33.505Z,2.60
2019-01-22T16:53:04.274Z,2.50
2019-01-22T16:55:38.548Z,2.50
2019-01-22T16:58:07.222Z,2.40
2019-01-22T17:00:37.197Z,2.30
2019-01-22T17:03:07.479Z,2.30
2019-01-22T17:05:36.341Z,2.20
2019-01-22T17:08:05.113Z,2.00
2019-01-22T17:10:33.996Z,1.90
2019-01-22T17:13:02.825Z,1.90
2019-01-22T17:15:31.260Z,1.90
2019-01-22T17:17:59.694Z,1.90
2019-01-22T17:20:33.784Z,1.80
2019-01-22T17:23:02.631Z,1.80
2019-01-22T17:25:31.788Z,1.90
2019-01-22T17:28:00.220Z,2.00
2019-01-22T17:30:30.907Z,2.10
2019-01-22T17:33:03.486Z,2.10
2019-01-22T17:35:34.184Z,2.10
2019-01-22T17:38:02.919Z,2.10
2019-01-22T17:40:31.657Z,2.00
2019-01-22T17:43:00.565Z,1.90
2019-01-22T17:45:29.118Z,2.00
2019-01-22T17:47:57.940Z,2.00
2019-01-22T17:50:26.817Z,2.00
2019-01-22T17:52:55.303Z,1.90
2019-01-22T17:55:23.816Z,1.90
2019-01-22T17:57:52.245Z,1.80
2019-01-22T18:00:23.027Z,1.90
2019-01-22T18:02:51.711Z,1.90
2019-01-22T18:05:20.781Z,1.80
2019-01-22T18:07:49.287Z,1.70
2019-01-22T18:10:20.131Z,1.70
2019-01-22T18:12:48.643Z,1.60
2019-01-22T18:15:17.669Z,1.60
2019-01-22T18:17:46.186Z,1.60
2019-01-22T18:20:19.704Z,1.50
2019-01-22T18:22:48.223Z,1.30
2019-01-22T18:25:16.807Z,1.20
2019-01-22T18:27:45.331Z,1.00
2019-01-22T18:30:19.524Z,0.90
2019-01-22T18:32:48.302Z,0.90
2019-01-22T18:35:19.676Z,0.80
2019-01-22T18:37:48.124Z,0.70
2019-01-22T18:40:16.659Z,0.70
2019-01-22T18:42:45.076Z,0.70
2019-01-22T18:45:19.430Z,0.80
2019-01-22T18:47:47.840Z,0.80
2019-01-22T18:50:22.531Z,0.80
2019-01-22T18:52:51.312Z,0.70
2019-01-22T18:55:20.174Z,0.70
2019-01-22T18:57:48.695Z,0.70
2019-01-22T19:00:24.516Z,0.60
2019-01-22T19:02:53.306Z,0.50
2019-01-22T19:05:22.547Z,0.50
2019-01-22T19:07:50.987Z,0.40
2019-01-22T19:10:29.612Z,0.30
2019-01-22T19:12:58.054Z,0.30
2019-01-22T19:15:26.638Z,0.40
2019-01-22T19:17:55.061Z,0.40
2019-01-22T19:20:23.515Z,0.40
2019-01-22T19:22:52.023Z,0.40
2019-01-22T19:25:28.788Z,0.50
2019-01-22T19:27:57.247Z,0.40
2019-01-22T19:30:28.601Z,0.40
2019-01-22T19:32:57.098Z,0.40
2019-01-22T19:35:25.534Z,0.30
2019-01-22T19:37:53.957Z,0.20
2019-01-22T19:40:22.533Z,0.20
2019-01-22T19:42:51.088Z,0.20
2019-01-22T19:45:22.370Z,0.10
2019-01-22T19:47:50.790Z,0.10
2019-01-22T19:50:19.231Z,0.00
2019-01-22T19:52:47.955Z,0.00
2019-01-22T19:55:16.384Z,0.00
2019-01-22T19:57:44.832Z,0.10
2019-01-22T20:00:25.689Z,0.10
2019-01-22T20:02:54.562Z,0.10
2019-01-22T20:05:23.416Z,0.10
2019-01-22T20:07:51.988Z,0.00
2019-01-22T20:10:20.554Z,0.00
2019-01-22T20:12:49.319Z,0.00
2019-01-22T20:15:23.013Z,-0.10
2019-01-22T20:17:51.464Z,-0.10
2019-01-22T20:20:21.075Z,-0.10
2019-01-22T20:22:49.501Z,-0.10
2019-01-22T20:25:18.984Z,-0.10
2019-01-22T20:27:48.288Z,-0.10
2019-01-22T20:30:25.954Z,0.00
2019-01-22T20:32:54.674Z,0.00
2019-01-22T20:35:23.175Z,-0.10
2019-01-22T20:37:52.056Z,-0.10
2019-01-22T20:40:20.571Z,0.00
2019-01-22T20:42:49.316Z,-0.10
2019-01-22T20:45:20.280Z,-0.20
2019-01-22T20:47:49.261Z,-0.20
2019-01-22T20:50:19.308Z,-0.30
2019-01-22T20:52:48.082Z,-0.30
2019-01-22T20:55:19.337Z,-0.30
2019-01-22T20:57:54.443Z,-0.40
2019-01-22T21:00:19.854Z,-0.30
2019-01-22T21:02:48.747Z,-0.50
2019-01-22T21:05:19.228Z,-0.50
2019-01-22T21:07:47.649Z,-0.50
2019-01-22T21:10:24.638Z,-0.50
2019-01-22T21:12:53.098Z,-0.50
2019-01-22T21:15:21.645Z,-0.60
2019-01-22T21:17:50.687Z,-0.50
2019-01-22T21:20:20.188Z,-0.50
2019-01-22T21:22:48.988Z,-0.50
2019-01-22T21:25:20.160Z,-0.50
2019-01-22T21:27:50.176Z,-0.40
2019-01-22T21:30:32.984Z,-0.40
2019-01-22T21:33:02.037Z,-0.40
2019-01-22T21:35:30.573Z,-0.30
2019-01-22T21:37:59.022Z,-0.20
2019-01-22T21:40:28.013Z,-0.20
2019-01-22T21:42:57.062Z,-0.20
2019-01-22T21:45:28.532Z,-0.10
2019-01-22T21:47:57.117Z,-0.10
2019-01-22T21:50:26.068Z,-0.10
2019-01-22T21:52:54.855Z,0.00
2019-01-22T21:55:24.252Z,-0.20
2019-01-22T21:57:53.153Z,-0.20
2019-01-22T22:00:26.536Z,0.00
2019-01-22T22:02:55.127Z,0.00
2019-01-22T22:05:28.829Z,0.00
2019-01-22T22:07:57.435Z,0.00
2019-01-22T22:10:26.124Z,0.00
2019-01-22T22:12:54.612Z,0.10
2019-01-22T22:15:27.570Z,0.10
2019-01-22T22:17:56.159Z,0.20
2019-01-22T22:20:24.883Z,0.30
2019-01-22T22:22:53.322Z,0.30
2019-01-22T22:25:23.128Z,0.40
2019-01-22T22:27:51.800Z,0.50
2019-01-22T22:30:31.290Z,0.50
2019-01-22T22:32:59.740Z,0.40
2019-01-22T22:35:28.374Z,0.50
2019-01-22T22:37:57.224Z,0.60
2019-01-22T22:40:26.301Z,0.60
2019-01-22T22:42:54.760Z,0.60
2019-01-22T22:45:24.033Z,0.60
2019-01-22T22:47:53.211Z,0.60
2019-01-22T22:50:30.148Z,0.70
2019-01-22T22:52:59.059Z,0.70
2019-01-22T22:55:27.565Z,0.80
2019-01-22T22:57:56.061Z,0.80
2019-01-22T23:00:50.485Z,0.90
2019-01-22T23:03:18.953Z,0.90
2019-01-22T23:05:47.475Z,0.90
2019-01-22T23:08:16.253Z,0.80
2019-01-22T23:10:44.697Z,0.90
2019-01-22T23:13:13.417Z,0.90
2019-01-22T23:15:41.892Z,0.90
2019-01-22T23:18:10.683Z,0.80
2019-01-22T23:20:39.211Z,0.80
2019-01-22T23:23:07.664Z,0.80
2019-01-22T23:25:36.130Z,0.70
2019-01-22T23:28:05.042Z,0.70
2019-01-22T23:30:33.546Z,0.80
2019-01-22T23:33:02.318Z,0.90
2019-01-22T23:35:30.843Z,0.90
2019-01-22T23:37:59.373Z,0.80
2019-01-22T23:40:27.858Z,0.90
2019-01-22T23:42:56.375Z,1.00
2019-01-22T23:45:24.832Z,1.00
2019-01-22T23:47:53.288Z,1.00
2019-01-22T23:50:21.752Z,1.10
2019-01-22T23:52:50.467Z,1.10
2019-01-22T23:55:18.913Z,1.10
2019-01-22T23:57:47.382Z,1.20
